Time;durP1;ratioP1;P1;durP2;ratioP2;P2;SDS_P1;SDS_P2;PMS_P1;PMS_P2;Temp;Humidity;BMP_temperature;BMP_pressure;BME280_temperature;BME280_humidity;BME280_pressure;Samples;Min_cycle;Max_cycle;Signal;HPM_P1;HPM_P2
2024/01/26 00:00:40;;;;;;;;;;;;;;;21.58;44.86;96627.59;10477088;28;3027;-65
2024/01/26 00:05:41;;;;;;;;;;;;;;;21.55;45.65;96622.88;10471723;28;2897;-66
2024/01/26 00:10:41;;;;;;;;;;;;;;;21.55;45.52;96621.03;10474175;28;2916;-65
2024/01/26 00:15:45;;;;;;;;;;;;;;;21.54;45.67;96619.44;10472808;28;2818;-66
2024/01/26 00:20:46;;;;;;;;;;;;;;;21.60;46.05;96623.66;10472978;28;2894;-65
2024/01/26 00:25:46;;;;;;;;;;;;;;;21.56;45.77;96617.31;10473411;28;2980;-66
2024/01/26 00:30:46;;;;;;;;;;;;;;;21.58;45.58;96619.69;10472099;28;2949;-66
2024/01/26 00:35:46;;;;;;;;;;;;;;;21.53;45.09;96615.22;10474025;28;3056;-66
2024/01/26 00:40:47;;;;;;;;;;;;;;;21.56;45.58;96614.69;10473769;28;3064;-66
2024/01/26 00:45:47;;;;;;;;;;;;;;;21.56;45.63;96617.31;10472520;28;2924;-66
2024/01/26 00:50:50;;;;;;;;;;;;;;;21.58;45.33;96614.41;10476582;28;2889;-66
2024/01/26 00:55:50;;;;;;;;;;;;;;;21.54;45.21;96615.97;10475832;28;2830;-65
2024/01/26 01:00:50;;;;;;;;;;;;;;;21.57;45.23;96626.03;10471410;28;2993;-66
2024/01/26 01:05:50;;;;;;;;;;;;;;;21.57;45.65;96629.47;10470688;28;3019;-67
2024/01/26 01:10:51;;;;;;;;;;;;;;;21.81;48.13;96624.53;10477494;28;2971;-67
2024/01/26 01:15:51;;;;;;;;;;;;;;;21.85;48.71;96621.13;10467866;28;3111;-68
2024/01/26 01:20:51;;;;;;;;;;;;;;;21.64;46.29;96623.94;10473761;28;2945;-66
2024/01/26 01:25:52;;;;;;;;;;;;;;;21.55;45.97;96617.59;10470872;28;3154;-66
2024/01/26 01:30:52;;;;;;;;;;;;;;;21.52;46.23;96623.38;10475692;28;2996;-66
2024/01/26 01:35:52;;;;;;;;;;;;;;;21.54;46.11;96618.63;10476153;28;2925;-66
2024/01/26 01:40:53;;;;;;;;;;;;;;;21.50;45.33;96620.19;10474008;28;2972;-65
2024/01/26 01:45:53;;;;;;;;;;;;;;;21.53;46.43;96622.31;10469865;28;3108;-66
2024/01/26 01:50:53;;;;;;;;;;;;;;;21.51;45.13;96624.44;10473149;28;2830;-66
2024/01/26 01:55:54;;;;;;;;;;;;;;;21.51;46.29;96627.88;10474245;28;2837;-65
2024/01/26 02:00:54;;;;;;;;;;;;;;;21.47;45.68;96624.16;10471317;28;2782;-65
2024/01/26 02:05:54;;;;;;;;;;;;;;;21.50;45.55;96617.56;10472070;28;3013;-66
2024/01/26 02:10:54;;;;;;;;;;;;;;;21.51;45.55;96619.16;10474426;28;2959;-66
2024/01/26 02:15:55;;;;;;;;;;;;;;;21.51;45.76;96611.25;10468303;28;2813;-66
2024/01/26 02:20:55;;;;;;;;;;;;;;;21.53;45.58;96617.06;10474182;28;3091;-66
2024/01/26 02:25:56;;;;;;;;;;;;;;;21.53;45.82;96609.13;10471139;28;2987;-66
2024/01/26 02:30:56;;;;;;;;;;;;;;;21.51;45.27;96611.25;10465773;28;2856;-66
2024/01/26 02:35:56;;;;;;;;;;;;;;;21.47;45.62;96610.97;10468269;28;2933;-64
2024/01/26 02:40:57;;;;;;;;;;;;;;;21.49;45.83;96614.16;10470466;28;3020;-64
2024/01/26 02:45:57;;;;;;;;;;;;;;;21.49;45.12;96608.06;10470137;28;3090;-66
2024/01/26 02:50:57;;;;;;;;;;;;;;;21.50;45.11;96607.81;10467131;28;2968;-65
2024/01/26 02:55:57;;;;;;;;;;;;;;;21.59;45.57;96606.25;10466994;28;2918;-66
2024/01/26 03:00:58;;;;;;;;;;;;;;;21.81;47.71;96601.59;10465214;28;2829;-65
2024/01/26 03:05:58;;;;;;;;;;;;;;;21.86;48.90;96617.44;10471022;28;2968;-65
2024/01/26 03:10:58;;;;;;;;;;;;;;;21.60;47.20;96630.78;10469381;28;3011;-66
2024/01/26 03:15:58;;;;;;;;;;;;;;;21.52;46.47;96626.00;10463837;28;2988;-66
2024/01/26 03:20:59;;;;;;;;;;;;;;;21.54;45.11;96622.06;10468685;28;2916;-65
2024/01/26 03:25:59;;;;;;;;;;;;;;;21.45;45.79;96631.50;10499395;28;2806;-65
2024/01/26 03:30:59;;;;;;;;;;;;;;;21.46;46.21;96633.13;10469070;28;2871;-66
2024/01/26 03:35:59;;;;;;;;;;;;;;;21.45;45.66;96644.69;10472380;28;2945;-67
2024/01/26 03:41:00;;;;;;;;;;;;;;;21.46;45.81;96640.22;10466940;28;2955;-66
2024/01/26 03:46:02;;;;;;;;;;;;;;;21.43;45.82;96641.53;10463211;28;3126;-66
2024/01/26 03:51:02;;;;;;;;;;;;;;;21.42;45.24;96639.97;10472264;28;2943;-69
2024/01/26 03:56:03;;;;;;;;;;;;;;;21.42;44.42;96642.59;10468248;28;3009;-66
2024/01/26 04:01:03;;;;;;;;;;;;;;;21.42;44.45;96652.34;10465863;28;3015;-66
2024/01/26 04:06:04;;;;;;;;;;;;;;;21.40;44.96;96649.97;10470697;28;2973;-66
2024/01/26 04:11:04;;;;;;;;;;;;;;;21.35;45.35;96657.06;10471132;28;3278;-65
2024/01/26 04:16:06;;;;;;;;;;;;;;;21.37;45.19;96662.88;10470110;28;3004;-65
2024/01/26 04:21:06;;;;;;;;;;;;;;;21.41;45.11;96666.59;10470534;28;2786;-66
2024/01/26 04:26:06;;;;;;;;;;;;;;;21.61;47.18;96671.97;10464165;28;2806;-65
2024/01/26 04:31:07;;;;;;;;;;;;;;;21.68;46.98;96673.28;10472272;28;2966;-66
2024/01/26 04:36:11;;;;;;;;;;;;;;;21.47;47.08;96673.47;10472587;28;3078;-65
2024/01/26 04:41:11;;;;;;;;;;;;;;;21.35;45.30;96668.41;10471008;28;3028;-67
2024/01/26 04:46:11;;;;;;;;;;;;;;;21.29;45.61;96677.34;10469471;28;3072;-66
2024/01/26 04:51:12;;;;;;;;;;;;;;;21.27;45.43;96681.28;10476890;28;3124;-66
2024/01/26 04:56:12;;;;;;;;;;;;;;;21.26;46.14;96680.50;10471056;28;2981;-66
2024/01/26 05:01:12;;;;;;;;;;;;;;;21.26;45.22;96674.41;10473068;28;2953;-66
2024/01/26 05:06:15;;;;;;;;;;;;;;;21.23;45.25;96678.34;10472567;28;2973;-66
2024/01/26 05:11:16;;;;;;;;;;;;;;;21.26;45.36;96695.50;10473493;28;2937;-67
2024/01/26 05:16:17;;;;;;;;;;;;;;;21.22;45.92;96687.31;10468667;28;2989;-66
2024/01/26 05:21:20;;;;;;;;;;;;;;;21.21;44.66;96683.09;10474129;28;2817;-66
2024/01/26 05:26:21;;;;;;;;;;;;;;;21.20;45.20;96699.16;10472499;28;2978;-66
2024/01/26 05:31:21;;;;;;;;;;;;;;;21.33;44.16;96711.91;10474703;28;2914;-66
2024/01/26 05:36:21;;;;;;;;;;;;;;;21.43;46.93;96706.69;10473928;28;2910;-66
2024/01/26 05:41:21;;;;;;;;;;;;;;;21.33;47.34;96701.38;10471412;28;2882;-67
2024/01/26 05:46:22;;;;;;;;;;;;;;;21.21;45.64;96712.09;10470658;28;2930;-66
2024/01/26 05:51:22;;;;;;;;;;;;;;;21.19;44.77;96711.56;10475130;28;2853;-67
2024/01/26 05:56:22;;;;;;;;;;;;;;;21.18;43.86;96703.91;10471457;28;2969;-67
2024/01/26 06:01:22;;;;;;;;;;;;;;;21.15;45.27;96705.19;10471965;28;2827;-66
2024/01/26 06:06:23;;;;;;;;;;;;;;;21.14;45.06;96697.56;10472950;28;2956;-67
2024/01/26 06:11:25;;;;;;;;;;;;;;;21.13;45.27;96702.03;10471400;28;2865;-66
2024/01/26 06:16:25;;;;;;;;;;;;;;;21.14;45.84;96694.91;10471346;28;2886;-67
2024/01/26 06:21:25;;;;;;;;;;;;;;;21.12;44.46;96700.44;10470160;28;2987;-66
2024/01/26 06:26:25;;;;;;;;;;;;;;;21.31;45.90;96698.97;10476154;28;2953;-66
2024/01/26 06:31:26;;;;;;;;;;;;;;;21.39;46.71;96705.63;10470643;28;3136;-66
2024/01/26 06:36:26;;;;;;;;;;;;;;;21.30;47.39;96696.59;10470658;28;2924;-67
2024/01/26 06:41:26;;;;;;;;;;;;;;;21.15;46.30;96684.09;10473143;28;2971;-66
2024/01/26 06:46:27;;;;;;;;;;;;;;;21.14;45.72;96679.91;10467399;28;3091;-66
2024/01/26 06:51:27;;;;;;;;;;;;;;;21.11;45.41;96696.22;10473489;28;3013;-68
2024/01/26 06:56:27;;;;;;;;;;;;;;;21.10;44.95;96681.47;10476627;28;2938;-69
2024/01/26 07:01:28;;;;;;;;;;;;;;;21.21;45.64;96679.66;10466394;28;2847;-69
2024/01/26 07:06:28;;;;;;;;;;;;;;;21.21;46.14;96679.66;10465921;28;2977;-71
2024/01/26 07:11:28;;;;;;;;;;;;;;;21.38;47.49;96677.66;10472288;28;2816;-72
2024/01/26 07:16:28;;;;;;;;;;;;;;;21.28;45.92;96677.59;10469082;28;3039;-69
2024/01/26 07:21:29;;;;;;;;;;;;;;;21.33;43.86;96675.78;10472747;28;2953;-66
2024/01/26 07:26:29;;;;;;;;;;;;;;;21.38;45.10;96667.91;10477677;28;2879;-67
2024/01/26 07:31:29;;;;;;;;;;;;;;;21.36;43.86;96669.19;10470261;28;2930;-68
2024/01/26 07:36:31;;;;;;;;;;;;;;;21.59;43.69;96671.41;10480127;28;3034;-72
2024/01/26 07:41:31;;;;;;;;;;;;;;;21.62;44.55;96670.88;10474833;28;3087;-72
2024/01/26 07:46:32;;;;;;;;;;;;;;;21.64;46.35;96674.06;10468142;28;2881;-71
2024/01/26 07:51:32;;;;;;;;;;;;;;;21.60;45.41;96678.28;10472438;28;3143;-71
2024/01/26 07:56:33;;;;;;;;;;;;;;;21.56;45.28;96664.00;10475403;28;2778;-72
2024/01/26 08:01:34;;;;;;;;;;;;;;;21.61;44.90;96664.03;10469261;28;2973;-70
2024/01/26 08:06:34;;;;;;;;;;;;;;;21.61;44.63;96674.59;10478348;28;2946;-72
2024/01/26 08:11:34;;;;;;;;;;;;;;;21.63;44.51;96664.56;10474836;28;2959;-71
2024/01/26 08:16:35;;;;;;;;;;;;;;;21.72;44.43;96647.22;10468156;28;3007;-71
2024/01/26 08:21:36;;;;;;;;;;;;;;;21.72;47.07;96634.78;10510287;27;2993;-72
2024/01/26 08:26:36;;;;;;;;;;;;;;;21.70;45.80;96641.41;10477916;28;2900;-70
2024/01/26 08:31:36;;;;;;;;;;;;;;;21.67;46.20;96634.78;10480623;28;2991;-73
2024/01/26 08:36:36;;;;;;;;;;;;;;;21.72;43.81;96641.94;10478521;28;2951;-71
2024/01/26 08:41:37;;;;;;;;;;;;;;;21.68;45.16;96635.56;10476813;28;2847;-71
2024/01/26 08:46:38;;;;;;;;;;;;;;;21.70;43.89;96628.19;10471011;28;3056;-69
2024/01/26 08:51:38;;;;;;;;;;;;;;;21.68;44.93;96625.00;10480949;28;3133;-70
2024/01/26 08:56:41;;;;;;;;;;;;;;;21.71;44.69;96613.94;10475503;28;2929;-68
2024/01/26 09:01:42;;;;;;;;;;;;;;;21.68;44.66;96620.53;10470848;28;2973;-70
2024/01/26 09:06:42;;;;;;;;;;;;;;;21.78;43.94;96617.13;10479425;28;2806;-69
2024/01/26 09:11:42;;;;;;;;;;;;;;;21.88;44.07;96614.56;10471663;28;2957;-68
2024/01/26 09:16:42;;;;;;;;;;;;;;;21.82;46.69;96605.03;10472766;28;3045;-67
2024/01/26 09:21:43;;;;;;;;;;;;;;;21.79;45.43;96593.13;10470505;28;2934;-70
2024/01/26 09:26:44;;;;;;;;;;;;;;;21.73;45.41;96590.72;10507471;28;2894;-70
2024/01/26 09:31:44;;;;;;;;;;;;;;;21.72;44.96;96589.16;10472332;28;2934;-66
2024/01/26 09:36:44;;;;;;;;;;;;;;;21.70;44.27;96591.25;10475276;28;3264;-69
2024/01/26 09:41:44;;;;;;;;;;;;;;;21.77;44.82;96583.88;10477436;28;2969;-69
2024/01/26 09:46:44;;;;;;;;;;;;;;;21.88;43.63;96585.50;10470556;28;2991;-68
2024/01/26 09:51:45;;;;;;;;;;;;;;;21.90;47.14;96578.13;10470221;28;2852;-68
2024/01/26 09:56:45;;;;;;;;;;;;;;;21.81;44.69;96569.94;10467772;28;3027;-68
2024/01/26 10:01:45;;;;;;;;;;;;;;;21.88;43.88;96586.28;10472699;28;3094;-67
2024/01/26 10:06:46;;;;;;;;;;;;;;;21.81;45.19;96580.47;10476587;28;2912;-68
2024/01/26 10:11:46;;;;;;;;;;;;;;;21.78;45.37;96577.56;10469530;28;3177;-67
2024/01/26 10:16:53;;;;;;;;;;;;;;;21.85;43.76;96572.81;10472852;28;3073;-68
2024/01/26 10:21:54;;;;;;;;;;;;;;;21.77;43.03;96560.91;10476738;28;2892;-68
2024/01/26 10:26:55;;;;;;;;;;;;;;;21.81;44.23;96547.97;10469383;28;3168;-67
2024/01/26 10:31:55;;;;;;;;;;;;;;;21.82;44.62;96531.91;10454714;28;3004;-69
2024/01/26 10:36:55;;;;;;;;;;;;;;;21.76;44.58;96516.31;10474218;28;3035;-73
2024/01/26 10:42:03;;;;;;;;;;;;;;;21.81;44.15;96503.13;10469368;28;3282;-73
2024/01/26 10:47:04;;;;;;;;;;;;;;;21.83;42.97;96475.44;10466298;28;3030;-74
2024/01/26 10:52:05;;;;;;;;;;;;;;;21.80;44.20;96475.94;10476627;28;2888;-73
2024/01/26 10:57:05;;;;;;;;;;;;;;;21.82;44.12;96457.25;10469600;28;3031;-71
2024/01/26 11:02:07;;;;;;;;;;;;;;;21.96;42.04;96439.81;10472413;28;2946;-73
2024/01/26 11:07:07;;;;;;;;;;;;;;;21.95;44.79;96427.66;10469543;28;2915;-72
2024/01/26 11:12:18;;;;;;;;;;;;;;;21.88;45.10;96435.84;10475207;28;2981;-69
2024/01/26 11:17:19;;;;;;;;;;;;;;;21.83;44.89;96421.84;10467029;28;3025;-68
2024/01/26 11:22:19;;;;;;;;;;;;;;;21.84;44.56;96421.59;10498040;28;2984;-69
2024/01/26 11:27:20;;;;;;;;;;;;;;;21.88;44.58;96406.03;10467656;28;2902;-64
2024/01/26 11:32:20;;;;;;;;;;;;;;;21.95;45.86;96397.84;10470011;28;2965;-71
2024/01/26 11:37:20;;;;;;;;;;;;;;;21.95;44.25;96390.69;10474189;28;3057;-72
2024/01/26 11:42:21;;;;;;;;;;;;;;;21.75;43.89;96394.13;10482564;28;2867;-66
2024/01/26 11:47:21;;;;;;;;;;;;;;;21.76;42.65;96387.78;10478257;28;2960;-67
2024/01/26 11:52:22;;;;;;;;;;;;;;;21.81;42.01;96381.72;10488921;28;2825;-67
2024/01/26 11:57:22;;;;;;;;;;;;;;;21.78;42.50;96377.00;10485537;28;2827;-65
2024/01/26 12:02:22;;;;;;;;;;;;;;;21.74;42.46;96370.66;10511872;28;3135;-66
2024/01/26 12:07:23;;;;;;;;;;;;;;;21.78;41.31;96367.19;10483383;28;2938;-66
2024/01/26 12:12:23;;;;;;;;;;;;;;;21.79;41.42;96370.63;10478675;28;3004;-65
2024/01/26 12:17:23;;;;;;;;;;;;;;;21.81;42.94;96385.19;10460181;28;3054;-66
2024/01/26 12:22:24;;;;;;;;;;;;;;;21.79;41.71;96378.56;10477451;28;2897;-65
2024/01/26 12:27:24;;;;;;;;;;;;;;;21.88;41.26;96367.22;10474842;28;2949;-65
2024/01/26 12:32:27;;;;;;;;;;;;;;;21.71;43.66;96366.69;10476183;28;2992;-65
2024/01/26 12:37:27;;;;;;;;;;;;;;;21.66;43.52;96356.13;10481554;28;3073;-65
2024/01/26 12:42:27;;;;;;;;;;;;;;;21.69;41.13;96346.91;10477487;28;2881;-65
2024/01/26 12:47:28;;;;;;;;;;;;;;;21.70;41.02;96337.94;10471465;28;3012;-66
2024/01/26 12:52:28;;;;;;;;;;;;;;;21.66;40.83;96337.66;10475753;28;2955;-66
2024/01/26 12:57:30;;;;;;;;;;;;;;;21.60;42.31;96337.94;10473041;28;2953;-66
2024/01/26 13:02:30;;;;;;;;;;;;;;;21.66;39.78;96331.59;10475925;28;2838;-65
2024/01/26 13:07:32;;;;;;;;;;;;;;;21.60;39.85;96337.94;10501811;28;3077;-66
2024/01/26 13:12:33;;;;;;;;;;;;;;;21.61;39.87;96334.25;10475141;28;2992;-66
2024/01/26 13:17:35;;;;;;;;;;;;;;;21.65;39.25;96330.81;10472550;28;3292;-65
2024/01/26 13:22:35;;;;;;;;;;;;;;;21.58;40.71;96329.50;10475951;28;2941;-65
2024/01/26 13:27:36;;;;;;;;;;;;;;;21.53;39.97;96342.69;10474386;28;2948;-66
2024/01/26 13:32:37;;;;;;;;;;;;;;;21.54;41.06;96344.28;10471158;28;3301;-66
2024/01/26 13:37:38;;;;;;;;;;;;;;;21.51;40.01;96345.63;10475425;28;3062;-64
2024/01/26 13:42:38;;;;;;;;;;;;;;;21.53;41.86;96342.69;10475209;28;2985;-65
2024/01/26 13:47:39;;;;;;;;;;;;;;;21.34;40.98;96347.72;10473226;28;3064;-66
2024/01/26 13:52:39;;;;;;;;;;;;;;;21.39;40.09;96352.97;10474913;28;2913;-66
2024/01/26 13:57:40;;;;;;;;;;;;;;;21.44;41.33;96355.63;10474482;28;2915;-66
2024/01/26 14:02:40;;;;;;;;;;;;;;;21.48;40.53;96354.03;10470876;28;3020;-66
2024/01/26 14:07:40;;;;;;;;;;;;;;;21.53;41.25;96356.69;10473998;28;2969;-64
2024/01/26 14:12:41;;;;;;;;;;;;;;;21.52;41.02;96347.19;10470307;28;2955;-66
2024/01/26 14:17:42;;;;;;;;;;;;;;;21.51;40.89;96365.91;10474298;28;2876;-65
2024/01/26 14:22:42;;;;;;;;;;;;;;;21.52;42.13;96370.13;10473284;28;2875;-66
2024/01/26 14:27:44;;;;;;;;;;;;;;;21.57;41.01;96352.47;10473177;28;3135;-66
2024/01/26 14:32:45;;;;;;;;;;;;;;;21.62;41.13;96362.19;10468336;28;2929;-66
2024/01/26 14:37:45;;;;;;;;;;;;;;;21.67;40.25;96364.84;10472503;28;3014;-66
2024/01/26 14:42:46;;;;;;;;;;;;;;;21.68;39.77;96366.41;10454044;28;2975;-66
2024/01/26 14:47:46;;;;;;;;;;;;;;;21.72;39.97;96356.94;10497210;28;2920;-67
2024/01/26 14:52:47;;;;;;;;;;;;;;;21.79;40.49;96365.34;10467270;28;2913;-65
2024/01/26 14:57:49;;;;;;;;;;;;;;;21.83;39.49;96358.53;10471244;28;3009;-66
2024/01/26 15:02:49;;;;;;;;;;;;;;;21.92;39.96;96362.22;10468417;28;3083;-63
2024/01/26 15:07:50;;;;;;;;;;;;;;;22.01;42.45;96368.50;10473339;28;3094;-64
2024/01/26 15:12:50;;;;;;;;;;;;;;;22.01;44.40;96380.94;10469615;28;3095;-64
2024/01/26 15:17:50;;;;;;;;;;;;;;;22.06;44.21;96379.06;10468760;28;2930;-65
2024/01/26 15:22:52;;;;;;;;;;;;;;;22.03;44.16;96384.88;10467196;28;2982;-65
2024/01/26 15:27:52;;;;;;;;;;;;;;;22.08;43.84;96384.88;10467087;28;3062;-64
2024/01/26 15:32:53;;;;;;;;;;;;;;;22.08;45.25;96379.59;10462068;28;3066;-65
2024/01/26 15:37:53;;;;;;;;;;;;;;;22.02;44.92;96383.31;10462200;28;2972;-64
2024/01/26 15:42:53;;;;;;;;;;;;;;;21.92;43.31;96388.59;10465616;28;2893;-65
2024/01/26 15:47:53;;;;;;;;;;;;;;;21.96;43.47;96392.28;10467662;28;2969;-65
2024/01/26 15:52:54;;;;;;;;;;;;;;;22.05;44.04;96406.50;10468070;28;2821;-64
2024/01/26 15:57:55;;;;;;;;;;;;;;;22.10;43.29;96401.25;10465156;28;2739;-64
2024/01/26 16:02:55;;;;;;;;;;;;;;;22.03;44.14;96398.06;10466046;28;2864;-64
2024/01/26 16:07:55;;;;;;;;;;;;;;;21.97;43.63;96409.69;10466532;28;2822;-65
2024/01/26 16:12:55;;;;;;;;;;;;;;;22.13;43.08;96403.34;10462122;28;2789;-65
2024/01/26 16:17:56;;;;;;;;;;;;;;;22.09;43.44;96422.63;10462573;28;2874;-64
2024/01/26 16:22:56;;;;;;;;;;;;;;;22.00;43.79;96422.38;10469236;28;2818;-65
2024/01/26 16:27:56;;;;;;;;;;;;;;;22.14;42.28;96426.06;10478446;28;2807;-64
2024/01/26 16:32:57;;;;;;;;;;;;;;;22.17;43.33;96427.38;10471422;28;3029;-65
2024/01/26 16:37:57;;;;;;;;;;;;;;;21.99;44.26;96420.78;10479468;28;3143;-65
2024/01/26 16:42:57;;;;;;;;;;;;;;;22.01;43.44;96425.81;10480471;28;2842;-64
2024/01/26 16:47:58;;;;;;;;;;;;;;;22.04;43.30;96407.59;10476436;28;2861;-65
2024/01/26 16:52:58;;;;;;;;;;;;;;;22.16;43.23;96428.41;10478439;28;2847;-64
2024/01/26 16:57:58;;;;;;;;;;;;;;;22.03;42.75;96450.09;10480769;28;3077;-65
2024/01/26 17:02:59;;;;;;;;;;;;;;;21.94;41.22;96449.03;10490835;28;2904;-65
2024/01/26 17:07:59;;;;;;;;;;;;;;;22.03;42.29;96450.88;10481741;28;2861;-65
2024/01/26 17:13:02;;;;;;;;;;;;;;;22.13;42.80;96442.16;10475687;28;3032;-65
2024/01/26 17:18:03;;;;;;;;;;;;;;;21.99;43.26;96449.81;10474885;28;3024;-65
2024/01/26 17:23:03;;;;;;;;;;;;;;;21.92;42.37;96490.75;10466894;28;2827;-64
2024/01/26 17:28:03;;;;;;;;;;;;;;;21.78;44.16;96488.59;10457311;28;2950;-64
2024/01/26 17:33:04;;;;;;;;;;;;;;;21.72;43.06;96533.72;10471903;28;2865;-64
2024/01/26 17:38:04;;;;;;;;;;;;;;;21.66;43.48;96529.47;10472296;28;2987;-64
2024/01/26 17:43:04;;;;;;;;;;;;;;;21.78;44.29;96530.81;10470447;28;2878;-63
2024/01/26 17:48:05;;;;;;;;;;;;;;;21.84;45.49;96534.31;10469807;28;2928;-63
2024/01/26 17:53:06;;;;;;;;;;;;;;;21.85;45.89;96541.97;10472425;28;2826;-64
2024/01/26 17:58:06;;;;;;;;;;;;;;;21.73;43.85;96551.13;10471494;28;2916;-63
2024/01/26 18:03:07;;;;;;;;;;;;;;;21.65;43.36;96562.22;10468535;28;3175;-64
2024/01/26 18:08:07;;;;;;;;;;;;;;;21.79;45.19;96579.91;10469339;28;2910;-64
2024/01/26 18:13:09;;;;;;;;;;;;;;;21.80;45.35;96586.00;10466310;28;2828;-64
2024/01/26 18:18:12;;;;;;;;;;;;;;;21.76;46.51;96616.59;10447356;28;2846;-64
2024/01/26 18:23:12;;;;;;;;;;;;;;;21.70;45.39;96638.75;10468900;28;2787;-64
2024/01/26 18:28:12;;;;;;;;;;;;;;;21.61;43.33;96661.41;10471175;28;3299;-64
2024/01/26 18:33:12;;;;;;;;;;;;;;;21.61;42.72;96669.31;10471900;28;2774;-64
2024/01/26 18:38:13;;;;;;;;;;;;;;;21.70;45.87;96687.03;10464649;28;3061;-64
2024/01/26 18:43:13;;;;;;;;;;;;;;;21.75;45.54;96712.66;10479053;28;2914;-64
2024/01/26 18:48:13;;;;;;;;;;;;;;;21.76;45.75;96722.16;10468198;28;2811;-64
2024/01/26 18:53:13;;;;;;;;;;;;;;;21.53;46.00;96741.03;10477037;28;2809;-64
2024/01/26 18:58:14;;;;;;;;;;;;;;;21.45;45.84;96750.22;10467142;28;2775;-64
2024/01/26 19:03:15;;;;;;;;;;;;;;;21.46;45.14;96769.47;10471797;28;2821;-64
2024/01/26 19:08:16;;;;;;;;;;;;;;;21.45;45.20;96773.94;10467220;28;2936;-64
2024/01/26 19:13:16;;;;;;;;;;;;;;;21.48;45.32;96809.59;10471866;28;2790;-64
2024/01/26 19:18:19;;;;;;;;;;;;;;;21.41;45.36;96828.25;10472115;28;2910;-64
2024/01/26 19:23:19;;;;;;;;;;;;;;;21.43;45.21;96838.59;10467891;28;2898;-64
2024/01/26 19:28:20;;;;;;;;;;;;;;;21.46;44.43;96865.25;10467502;28;2787;-63
2024/01/26 19:33:20;;;;;;;;;;;;;;;21.53;44.94;96891.41;10468093;28;2792;-64
2024/01/26 19:38:21;;;;;;;;;;;;;;;21.80;45.90;96895.56;10464128;28;2895;-64
2024/01/26 19:43:21;;;;;;;;;;;;;;;21.88;46.71;96910.97;10465782;28;2972;-64
2024/01/26 19:48:21;;;;;;;;;;;;;;;21.84;47.74;96915.16;10466044;28;3038;-65
2024/01/26 19:53:23;;;;;;;;;;;;;;;21.83;47.32;96929.41;10473232;28;3016;-64
2024/01/26 19:58:23;;;;;;;;;;;;;;;21.69;44.91;96937.97;10475080;28;2923;-65
2024/01/26 20:03:23;;;;;;;;;;;;;;;21.57;45.48;96950.56;10476347;28;2938;-65
2024/01/26 20:08:25;;;;;;;;;;;;;;;21.50;45.42;96976.34;10475480;28;3109;-64
2024/01/26 20:13:25;;;;;;;;;;;;;;;21.47;45.57;96990.03;10474687;28;3469;-65
2024/01/26 20:18:26;;;;;;;;;;;;;;;21.50;44.27;96997.44;10471176;28;2976;-64
2024/01/26 20:23:29;;;;;;;;;;;;;;;21.54;45.03;97007.25;10478842;28;2853;-64
2024/01/26 20:28:30;;;;;;;;;;;;;;;21.55;44.52;97013.31;10473601;28;2985;-63
2024/01/26 20:33:30;;;;;;;;;;;;;;;21.81;46.30;97031.81;10476994;28;2921;-66
2024/01/26 20:38:30;;;;;;;;;;;;;;;21.86;46.83;97044.28;10476096;28;2997;-67
2024/01/26 20:43:31;;;;;;;;;;;;;;;21.81;48.17;97045.00;10473357;28;2980;-65
2024/01/26 20:48:31;;;;;;;;;;;;;;;21.77;47.15;97051.00;10482437;28;2787;-67
2024/01/26 20:53:31;;;;;;;;;;;;;;;21.63;45.81;97049.81;10514650;28;2803;-65
2024/01/26 20:58:32;;;;;;;;;;;;;;;21.62;44.26;97062.22;10480402;28;2759;-64
2024/01/26 21:03:32;;;;;;;;;;;;;;;21.71;46.61;97070.47;10476270;28;2909;-64
2024/01/26 21:08:33;;;;;;;;;;;;;;;21.74;48.00;97072.63;10473590;28;2832;-64
2024/01/26 21:13:33;;;;;;;;;;;;;;;21.69;47.00;97075.22;10489761;28;2829;-65
2024/01/26 21:18:34;;;;;;;;;;;;;;;21.63;46.33;97087.56;10503188;28;2865;-65
2024/01/26 21:23:34;;;;;;;;;;;;;;;21.56;45.77;97080.88;10480113;28;2903;-65
2024/01/26 21:28:34;;;;;;;;;;;;;;;21.71;47.70;97087.13;10472978;28;2873;-65
2024/01/26 21:33:35;;;;;;;;;;;;;;;21.67;47.43;97086.03;10472991;28;2869;-64
2024/01/26 21:38:35;;;;;;;;;;;;;;;21.59;44.80;97083.03;10475712;28;3281;-65
2024/01/26 21:43:35;;;;;;;;;;;;;;;21.57;46.17;97095.66;10475456;28;2926;-65
2024/01/26 21:48:36;;;;;;;;;;;;;;;21.72;48.06;97098.47;10473177;28;2898;-64
2024/01/26 21:53:36;;;;;;;;;;;;;;;21.72;47.76;97095.84;10467919;28;2845;-65
2024/01/26 21:58:38;;;;;;;;;;;;;;;21.59;46.34;97088.31;10475128;28;3020;-65
2024/01/26 22:03:39;;;;;;;;;;;;;;;21.52;45.09;97106.97;10474632;28;2762;-65
2024/01/26 22:08:41;;;;;;;;;;;;;;;21.54;45.30;97101.44;10474911;28;2873;-65
2024/01/26 22:13:41;;;;;;;;;;;;;;;21.55;46.59;97089.84;10488507;28;2829;-65
2024/01/26 22:18:42;;;;;;;;;;;;;;;21.53;47.68;97099.84;10475907;28;2849;-65
2024/01/26 22:23:43;;;;;;;;;;;;;;;21.45;48.03;97095.78;10477588;28;3030;-65
2024/01/26 22:28:43;;;;;;;;;;;;;;;21.45;47.73;97105.56;10468333;28;2884;-64
2024/01/26 22:33:43;;;;;;;;;;;;;;;21.39;48.51;97123.16;10469897;28;2988;-65
2024/01/26 22:38:44;;;;;;;;;;;;;;;21.43;48.34;97134.03;10472573;28;2952;-65
2024/01/26 22:43:45;;;;;;;;;;;;;;;21.34;48.77;97131.00;10473543;28;3238;-65
2024/01/26 22:48:47;;;;;;;;;;;;;;;21.36;48.51;97133.41;10451209;28;2931;-65
2024/01/26 22:53:47;;;;;;;;;;;;;;;21.46;46.09;97136.16;10487889;28;2905;-66
2024/01/26 22:58:47;;;;;;;;;;;;;;;21.50;45.61;97134.63;10472982;28;2790;-64
2024/01/26 23:03:48;;;;;;;;;;;;;;;21.50;46.97;97130.16;10504383;28;2878;-65
2024/01/26 23:08:49;;;;;;;;;;;;;;;21.53;47.95;97140.22;10477419;28;2763;-65
2024/01/26 23:13:49;;;;;;;;;;;;;;;21.54;48.32;97151.56;10468292;28;2880;-65
2024/01/26 23:18:50;;;;;;;;;;;;;;;21.51;45.67;97163.41;10465808;28;2783;-64
2024/01/26 23:23:50;;;;;;;;;;;;;;;21.46;46.31;97149.34;10468032;28;2897;-64
2024/01/26 23:28:51;;;;;;;;;;;;;;;21.56;46.65;97149.47;10464635;28;2847;-65
2024/01/26 23:33:51;;;;;;;;;;;;;;;21.56;47.83;97160.81;10482983;28;2826;-65
2024/01/26 23:38:52;;;;;;;;;;;;;;;21.52;48.04;97161.56;10490928;28;2912;-64
2024/01/26 23:43:55;;;;;;;;;;;;;;;21.51;47.94;97168.69;10481942;28;2794;-65
2024/01/26 23:48:55;;;;;;;;;;;;;;;21.46;48.63;97163.34;10484545;28;2886;-64
2024/01/26 23:53:55;;;;;;;;;;;;;;;21.38;45.05;97161.13;10481570;28;3026;-63
2024/01/26 23:58:56;;;;;;;;;;;;;;;21.41;45.96;97173.03;10479258;28;2818;-64
